Time;durP1;ratioP1;P1;durP2;ratioP2;P2;SDS_P1;SDS_P2;PMS_P1;PMS_P2;Temp;Humidity;BMP_temperature;BMP_pressure;BME280_temperature;BME280_humidity;BME280_pressure;Samples;Min_cycle;Max_cycle;Signal;HPM_P1;HPM_P2
2021/10/16 00:00:24;;;;;;;6.07;4.93;;;;;;;10.30;100.00;98856.94;5022171;28;20033;-61
2021/10/16 00:02:50;;;;;;;8.95;5.05;;;;;;;10.07;100.00;98861.50;5019328;28;20034;-62
2021/10/16 00:05:15;;;;;;;5.80;4.70;;;;;;;9.95;100.00;98857.38;5026984;28;20026;-62
2021/10/16 00:07:41;;;;;;;10.27;5.00;;;;;;;9.73;100.00;98849.97;5030231;28;20029;-60
2021/10/16 00:10:07;;;;;;;7.10;5.30;;;;;;;9.48;100.00;98863.06;5029859;28;20072;-62
2021/10/16 00:12:33;;;;;;;5.97;4.37;;;;;;;9.31;100.00;98862.38;5031235;28;20087;-61
2021/10/16 00:14:59;;;;;;;6.00;4.67;;;;;;;9.32;100.00;98860.69;5037299;28;20037;-61
2021/10/16 00:17:24;;;;;;;5.87;4.50;;;;;;;9.24;100.00;98865.03;5041811;28;20060;-62
2021/10/16 00:19:50;;;;;;;7.57;5.13;;;;;;;9.22;100.00;98859.91;5029940;28;20033;-62
2021/10/16 00:22:20;;;;;;;6.20;4.43;;;;;;;9.11;100.00;98861.75;5033322;28;20482;-62
2021/10/16 00:24:46;;;;;;;5.47;4.50;;;;;;;9.15;100.00;98871.09;5037034;28;20048;-62
2021/10/16 00:27:11;;;;;;;7.73;4.67;;;;;;;9.13;100.00;98867.69;5033733;28;20114;-62
2021/10/16 00:29:37;;;;;;;6.93;3.93;;;;;;;9.16;100.00;98868.50;5030598;28;20120;-62
2021/10/16 00:32:02;;;;;;;5.73;4.80;;;;;;;9.18;100.00;98868.50;5025604;28;20033;-62
2021/10/16 00:34:28;;;;;;;4.77;3.93;;;;;;;9.13;100.00;98865.97;5026356;28;20053;-62
2021/10/16 00:36:53;;;;;;;6.33;4.57;;;;;;;9.20;100.00;98864.22;5024117;28;20040;-63
2021/10/16 00:39:18;;;;;;;6.93;4.00;;;;;;;9.18;100.00;98866.78;5019486;28;20033;-62
2021/10/16 00:41:44;;;;;;;5.13;4.07;;;;;;;9.29;100.00;98873.53;5022108;28;20060;-63
2021/10/16 00:44:22;;;;;;;9.10;4.67;;;;;;;9.30;100.00;98873.47;5031611;28;20184;-63
2021/10/16 00:46:48;;;;;;;5.83;4.07;;;;;;;9.30;100.00;98865.81;5029278;28;20025;-63
2021/10/16 00:49:13;;;;;;;4.47;3.60;;;;;;;9.25;100.00;98861.63;5032933;28;20048;-62
2021/10/16 00:51:39;;;;;;;5.40;4.40;;;;;;;9.29;100.00;98860.72;5028065;28;20032;-63
2021/10/16 00:54:07;;;;;;;7.20;4.13;;;;;;;9.35;100.00;98863.19;5037295;28;20467;-62
2021/10/16 00:56:44;;;;;;;4.70;3.90;;;;;;;9.49;100.00;98864.75;5031698;28;20036;-61
2021/10/16 00:59:10;;;;;;;6.83;4.30;;;;;;;9.66;100.00;98859.44;5028821;28;20034;-62
2021/10/16 01:01:37;;;;;;;6.57;4.40;;;;;;;9.76;100.00;98861.03;5033969;28;20383;-59
2021/10/16 01:04:05;;;;;;;5.73;4.67;;;;;;;9.70;100.00;98862.81;5030039;28;20540;-60
2021/10/16 01:06:31;;;;;;;7.80;4.83;;;;;;;9.87;100.00;98861.75;5029503;28;20140;-57
2021/10/16 01:08:58;;;;;;;7.53;4.80;;;;;;;9.92;100.00;98867.66;5025667;28;20426;-59
2021/10/16 01:11:48;;;;;;;8.77;5.70;;;;;;;10.17;100.00;98857.13;5028380;28;20029;-56
2021/10/16 01:14:13;;;;;;;8.73;5.00;;;;;;;10.26;100.00;98862.13;5024580;28;20104;-58
2021/10/16 01:16:41;;;;;;;4.90;4.27;;;;;;;10.37;100.00;98860.25;5022413;28;20029;-59
2021/10/16 01:19:19;;;;;;;5.30;4.65;;;;;;;10.53;100.00;98861.72;5025297;28;20037;-58
2021/10/16 01:21:47;;;;;;;7.07;4.65;;;;;;;10.63;100.00;98868.41;5026257;28;20060;-60
2021/10/16 01:24:15;;;;;;;6.43;5.78;;;;;;;10.57;100.00;98865.06;5026594;28;20480;-61
2021/10/16 01:26:42;;;;;;;5.53;4.68;;;;;;;10.51;100.00;98863.47;5028541;28;20395;-61
2021/10/16 01:29:10;;;;;;;5.78;5.22;;;;;;;10.46;100.00;98865.25;5034987;28;20037;-63
2021/10/16 01:31:37;;;;;;;5.88;4.70;;;;;;;10.40;100.00;98866.16;5034171;28;20526;-61
2021/10/16 01:34:04;;;;;;;4.30;3.90;;;;;;;10.30;100.00;98866.34;5029841;28;20029;-60
2021/10/16 01:36:49;;;;;;;4.20;3.67;;;;;;;10.25;100.00;98865.56;5027818;28;20026;-59
2021/10/16 01:39:15;;;;;;;7.00;4.25;;;;;;;10.13;100.00;98874.22;5033953;28;20094;-59
2021/10/16 01:41:42;;;;;;;5.30;4.18;;;;;;;9.99;100.00;98866.72;5026824;28;20144;-57
2021/10/16 01:44:08;;;;;;;4.82;3.85;;;;;;;9.95;100.00;98872.75;5031778;28;20064;-59
2021/10/16 01:46:34;;;;;;;4.78;4.10;;;;;;;9.89;100.00;98869.41;5025635;28;20025;-59
2021/10/16 01:49:16;;;;;;;4.88;3.65;;;;;;;9.85;100.00;98871.16;5032613;28;20056;-59
2021/10/16 01:51:44;;;;;;;5.43;4.57;;;;;;;9.78;100.00;98872.09;5028494;28;20036;-59
2021/10/16 01:54:09;;;;;;;4.63;3.92;;;;;;;9.72;100.00;98872.16;5025629;28;20039;-59
2021/10/16 01:56:35;;;;;;;4.95;4.03;;;;;;;9.73;100.00;98873.88;5018590;28;20037;-57
2021/10/16 01:59:34;;;;;;;4.72;4.15;;;;;;;9.75;100.00;98882.38;5026148;28;20049;-59
2021/10/16 02:02:00;;;;;;;5.00;4.22;;;;;;;9.69;100.00;98886.72;5012590;28;20132;-60
2021/10/16 02:04:25;;;;;;;3.92;3.63;;;;;;;9.64;100.00;98886.75;5026716;28;20123;-59
2021/10/16 02:06:51;;;;;;;4.28;3.88;;;;;;;9.65;100.00;98888.47;5023644;28;20040;-59
2021/10/16 02:09:16;;;;;;;4.18;3.78;;;;;;;9.61;100.00;98890.22;5033709;28;20442;-55
2021/10/16 02:11:41;;;;;;;7.00;4.32;;;;;;;9.63;100.00;98885.09;5029021;28;20021;-57
2021/10/16 02:14:10;;;;;;;5.05;3.95;;;;;;;9.58;100.00;98889.41;5031122;28;20033;-57
2021/10/16 02:16:36;;;;;;;4.85;4.00;;;;;;;9.60;100.00;98882.53;5032868;28;20036;-57
2021/10/16 02:19:02;;;;;;;4.70;4.30;;;;;;;9.57;100.00;98888.56;5032675;28;20025;-55
2021/10/16 02:21:28;;;;;;;6.60;5.10;;;;;;;9.55;100.00;98887.72;5032146;28;20029;-56
2021/10/16 02:23:54;;;;;;;7.10;4.28;;;;;;;9.66;100.00;98894.44;5028599;28;20690;-56
2021/10/16 02:26:19;;;;;;;4.55;4.15;;;;;;;9.67;100.00;98903.81;5032317;28;20427;-57
2021/10/16 02:28:45;;;;;;;4.75;4.25;;;;;;;9.68;100.00;98895.25;5032781;28;20171;-56
2021/10/16 02:31:11;;;;;;;4.90;4.28;;;;;;;9.70;100.00;98902.06;5022504;28;20033;-57
2021/10/16 02:33:36;;;;;;;6.40;4.05;;;;;;;9.65;100.00;98898.72;5022068;28;20556;-57
2021/10/16 02:36:02;;;;;;;4.47;3.45;;;;;;;9.66;100.00;98913.22;5018155;28;20042;-58
2021/10/16 02:38:27;;;;;;;3.92;3.63;;;;;;;9.57;100.00;98906.47;5024969;28;20020;-59
2021/10/16 02:40:53;;;;;;;5.35;4.55;;;;;;;9.64;100.00;98910.66;5019867;28;20061;-58
2021/10/16 02:43:18;;;;;;;4.38;3.97;;;;;;;9.65;100.00;98911.50;5023891;28;20690;-58
2021/10/16 02:45:44;;;;;;;5.45;4.30;;;;;;;9.70;100.00;98912.31;5026209;28;20361;-59
2021/10/16 02:48:09;;;;;;;7.93;4.60;;;;;;;9.80;100.00;98916.44;5034789;28;20036;-57
2021/10/16 02:50:35;;;;;;;6.85;4.28;;;;;;;10.01;100.00;98915.38;5031311;28;20069;-58
2021/10/16 02:53:00;;;;;;;7.35;4.22;;;;;;;10.27;100.00;98918.47;5031222;28;20441;-59
2021/10/16 02:55:26;;;;;;;6.03;4.18;;;;;;;10.55;100.00;98913.81;5035632;28;20022;-58
2021/10/16 02:57:51;;;;;;;5.57;4.40;;;;;;;10.75;100.00;98921.22;5033815;28;20033;-59
2021/10/16 03:00:17;;;;;;;4.65;3.95;;;;;;;10.89;100.00;98915.00;5026698;28;20032;-60
2021/10/16 03:02:42;;;;;;;6.88;4.38;;;;;;;11.03;100.00;98919.06;5028127;28;20110;-55
2021/10/16 03:05:08;;;;;;;5.25;4.45;;;;;;;11.10;100.00;98918.09;5026863;28;20075;-59
2021/10/16 03:07:34;;;;;;;7.45;4.25;;;;;;;11.13;100.00;98911.19;5026304;28;20033;-57
2021/10/16 03:09:59;;;;;;;5.65;3.85;;;;;;;11.19;100.00;98911.09;5025394;28;20116;-59
2021/10/16 03:12:25;;;;;;;4.22;3.83;;;;;;;11.20;100.00;98919.66;5015965;28;20038;-60
2021/10/16 03:14:50;;;;;;;6.70;4.07;;;;;;;11.21;100.00;98916.19;5022603;28;20026;-59
2021/10/16 03:17:16;;;;;;;5.88;3.70;;;;;;;11.21;100.00;98909.34;5020356;28;20037;-59
2021/10/16 03:19:41;;;;;;;6.47;4.05;;;;;;;11.28;100.00;98904.97;5027539;28;20041;-57
2021/10/16 03:22:08;;;;;;;4.63;4.22;;;;;;;11.32;100.00;98904.88;5026859;28;20451;-58
2021/10/16 03:24:34;;;;;;;3.95;3.65;;;;;;;11.37;100.00;98913.31;5031199;28;20029;-59
2021/10/16 03:27:00;;;;;;;5.38;3.85;;;;;;;11.39;100.00;98906.47;5031998;28;20033;-60
2021/10/16 03:29:26;;;;;;;5.22;3.92;;;;;;;11.41;100.00;98911.56;5027892;28;20033;-61
2021/10/16 03:31:51;;;;;;;5.13;3.67;;;;;;;11.46;100.00;98905.47;5029292;28;20415;-60
2021/10/16 03:34:17;;;;;;;4.50;3.63;;;;;;;11.41;100.00;98912.41;5029420;28;20033;-59
2021/10/16 03:36:43;;;;;;;4.68;4.05;;;;;;;11.43;100.00;98909.81;5026823;28;20036;-60
2021/10/16 03:39:08;;;;;;;5.53;3.65;;;;;;;11.41;100.00;98909.81;5026413;28;20022;-60
2021/10/16 03:41:33;;;;;;;5.70;4.05;;;;;;;11.38;100.00;98902.19;5028818;28;20123;-59
2021/10/16 03:43:59;;;;;;;4.75;3.92;;;;;;;11.37;100.00;98908.19;5034681;28;20375;-58
2021/10/16 03:46:24;;;;;;;4.18;3.72;;;;;;;11.33;100.00;98909.13;5024225;28;20038;-58
2021/10/16 03:48:50;;;;;;;5.82;4.47;;;;;;;11.36;100.00;98906.53;5029082;28;20391;-57
2021/10/16 03:51:16;;;;;;;4.22;3.72;;;;;;;11.34;100.00;98904.84;5029471;28;20521;-59
2021/10/16 03:53:41;;;;;;;4.10;3.38;;;;;;;11.34;100.00;98909.97;5030313;28;20033;-60
2021/10/16 03:56:07;;;;;;;5.43;3.70;;;;;;;11.25;100.00;98915.25;5028148;28;20030;-58
2021/10/16 03:58:32;;;;;;;4.55;4.00;;;;;;;11.20;100.00;98920.47;5022267;28;20063;-60
2021/10/16 04:01:02;;;;;;;6.63;3.92;;;;;;;11.27;100.00;98923.78;5029071;28;20037;-60
2021/10/16 04:03:28;;;;;;;5.03;4.22;;;;;;;11.18;100.00;98922.22;5027054;28;20450;-56
2021/10/16 04:05:54;;;;;;;4.72;3.83;;;;;;;11.17;100.00;98924.81;5027343;28;20798;-57
2021/10/16 04:08:20;;;;;;;4.25;3.72;;;;;;;11.13;100.00;98928.31;5026435;28;20121;-59
2021/10/16 04:10:45;;;;;;;5.13;4.63;;;;;;;11.07;100.00;98928.41;5028442;28;20487;-59
2021/10/16 04:13:11;;;;;;;6.32;4.45;;;;;;;11.10;100.00;98931.78;5033236;28;20118;-58
2021/10/16 04:15:37;;;;;;;5.97;4.57;;;;;;;11.13;100.00;98934.28;5033560;28;20157;-59
2021/10/16 04:18:03;;;;;;;5.78;4.32;;;;;;;11.20;100.00;98937.63;5032762;28;20563;-60
2021/10/16 04:20:29;;;;;;;6.40;4.32;;;;;;;11.20;100.00;98937.63;5037726;28;20599;-60
2021/10/16 04:22:55;;;;;;;5.28;4.50;;;;;;;11.22;100.00;98940.97;5028871;28;20268;-60
2021/10/16 04:25:20;;;;;;;5.65;5.15;;;;;;;11.18;100.00;98942.75;5031585;28;20438;-61
2021/10/16 04:27:46;;;;;;;4.90;4.32;;;;;;;11.09;100.00;98945.47;5025555;28;20581;-61
2021/10/16 04:30:11;;;;;;;7.75;4.68;;;;;;;11.06;100.00;98949.81;5030969;28;20419;-61
2021/10/16 04:32:37;;;;;;;5.00;4.50;;;;;;;11.02;100.00;98950.72;5023540;28;20037;-61
2021/10/16 04:35:05;;;;;;;5.20;4.43;;;;;;;10.94;100.00;98955.97;5020311;28;20040;-61
2021/10/16 04:37:30;;;;;;;4.93;4.18;;;;;;;10.88;100.00;98959.47;5021115;28;20044;-61
2021/10/16 04:39:56;;;;;;;6.25;4.57;;;;;;;10.81;100.00;98952.75;5025539;28;20057;-61
2021/10/16 04:42:21;;;;;;;4.50;3.78;;;;;;;10.78;100.00;98960.47;5029441;28;20040;-61
2021/10/16 04:44:47;;;;;;;5.25;3.63;;;;;;;10.85;100.00;98962.09;5028273;28;20545;-59
2021/10/16 04:47:12;;;;;;;6.68;4.55;;;;;;;10.74;100.00;98958.81;5029247;28;20075;-60
2021/10/16 04:49:38;;;;;;;4.80;4.18;;;;;;;10.61;100.00;98956.47;5035364;28;20041;-60
2021/10/16 04:52:05;;;;;;;5.03;3.28;;;;;;;10.70;100.00;98966.56;5034748;28;20059;-60
2021/10/16 04:54:31;;;;;;;4.28;3.38;;;;;;;10.65;100.00;98958.94;5030368;28;20099;-59
2021/10/16 04:56:56;;;;;;;3.65;3.35;;;;;;;10.67;100.00;98971.75;5032359;28;20464;-60
2021/10/16 04:59:22;;;;;;;4.60;3.28;;;;;;;10.63;100.00;98960.69;5031123;28;20040;-57
2021/10/16 05:01:47;;;;;;;4.15;3.60;;;;;;;10.62;100.00;98969.25;5032440;28;20029;-59
2021/10/16 05:04:13;;;;;;;3.85;3.50;;;;;;;10.61;100.00;98972.69;5026851;28;20025;-57
2021/10/16 05:06:38;;;;;;;3.80;3.50;;;;;;;10.55;100.00;98967.66;5025358;28;20026;-62
2021/10/16 05:09:04;;;;;;;4.35;3.45;;;;;;;10.63;100.00;98977.81;5026011;28;20038;-60
2021/10/16 05:11:29;;;;;;;3.95;3.58;;;;;;;10.58;100.00;98972.72;5025495;28;20624;-60
2021/10/16 05:13:55;;;;;;;4.20;3.80;;;;;;;10.57;100.00;98976.16;5015559;28;20045;-58
2021/10/16 05:16:20;;;;;;;3.55;3.25;;;;;;;10.53;100.00;98980.47;5023872;28;20079;-61
2021/10/16 05:18:46;;;;;;;5.40;4.55;;;;;;;10.46;100.00;98976.31;5025470;28;20048;-60
2021/10/16 05:21:13;;;;;;;6.18;4.30;;;;;;;10.44;100.00;98990.00;5028491;28;20375;-57
2021/10/16 05:23:38;;;;;;;4.82;4.43;;;;;;;10.43;100.00;98988.31;5030604;28;20403;-60
2021/10/16 05:26:04;;;;;;;3.83;3.53;;;;;;;10.50;100.00;98989.94;5029862;28;20038;-68
2021/10/16 05:28:30;;;;;;;4.55;4.15;;;;;;;10.30;100.00;98994.47;5029958;28;20033;-56
2021/10/16 05:30:55;;;;;;;5.03;3.90;;;;;;;10.15;100.00;98995.47;5025287;28;20033;-63
2021/10/16 05:33:20;;;;;;;4.28;3.72;;;;;;;10.22;100.00;99004.81;5030808;28;20037;-58
2021/10/16 05:35:46;;;;;;;4.28;3.83;;;;;;;10.13;100.00;99009.16;5030999;28;20464;-56
2021/10/16 05:38:12;;;;;;;5.07;4.57;;;;;;;10.06;100.00;99004.09;5035187;28;20090;-57
2021/10/16 05:40:39;;;;;;;3.72;3.38;;;;;;;10.20;100.00;99010.81;5028072;28;20530;-58
2021/10/16 05:43:04;;;;;;;5.53;3.83;;;;;;;10.14;100.00;99011.72;5024576;28;20049;-55
2021/10/16 05:45:30;;;;;;;3.45;3.08;;;;;;;10.17;100.00;99009.13;5026171;28;20034;-60
2021/10/16 05:47:55;;;;;;;5.55;2.72;;;;;;;10.24;100.00;99020.16;5023153;28;20089;-54
2021/10/16 05:50:21;;;;;;;3.45;3.15;;;;;;;10.22;100.00;99024.47;5021130;28;20205;-60
2021/10/16 05:52:47;;;;;;;3.90;3.17;;;;;;;10.24;100.00;99023.56;5018990;28;20032;-59
2021/10/16 05:55:12;;;;;;;3.53;3.22;;;;;;;10.32;100.00;99026.03;5020993;28;20038;-59
2021/10/16 05:57:38;;;;;;;3.03;2.78;;;;;;;10.33;100.00;99014.91;5026648;28;20189;-60
2021/10/16 06:00:04;;;;;;;3.28;2.97;;;;;;;10.17;100.00;98998.03;5030219;28;20029;-60
2021/10/16 06:02:30;;;;;;;3.10;2.90;;;;;;;10.30;100.00;99026.06;5025417;28;20051;-58
2021/10/16 06:04:55;;;;;;;2.80;2.60;;;;;;;10.32;100.00;99028.59;5032668;28;20036;-58
2021/10/16 06:07:20;;;;;;;4.45;3.03;;;;;;;10.20;100.00;99031.31;5028299;28;20105;-57
2021/10/16 06:09:46;;;;;;;4.45;3.15;;;;;;;10.20;100.00;99037.28;5031831;28;20043;-60
2021/10/16 06:12:11;;;;;;;3.10;2.80;;;;;;;10.19;100.00;99050.94;5024568;28;20594;-58
2021/10/16 06:14:37;;;;;;;3.58;2.65;;;;;;;10.22;100.00;99056.06;5034826;28;20042;-56
2021/10/16 06:17:03;;;;;;;3.08;2.78;;;;;;;10.27;100.00;99049.16;5025016;28;20033;-61
2021/10/16 06:19:29;;;;;;;3.50;3.22;;;;;;;10.25;100.00;99055.16;5029093;28;20033;-60
2021/10/16 06:21:55;;;;;;;2.92;2.75;;;;;;;10.01;100.00;99062.19;5025012;28;20272;-60
2021/10/16 06:24:20;;;;;;;3.00;2.70;;;;;;;10.06;100.00;99059.59;5027302;28;20491;-60
2021/10/16 06:26:45;;;;;;;3.10;2.80;;;;;;;10.13;100.00;99063.81;5021027;28;20025;-60
2021/10/16 06:29:11;;;;;;;3.17;2.88;;;;;;;10.16;100.00;99071.47;5021961;28;20060;-59
2021/10/16 06:31:36;;;;;;;4.05;2.90;;;;;;;10.08;100.00;99071.53;5016773;28;20033;-60
2021/10/16 06:34:02;;;;;;;2.97;2.78;;;;;;;10.25;100.00;99071.38;5022503;28;20124;-60
2021/10/16 06:36:27;;;;;;;3.50;2.50;;;;;;;10.24;100.00;99086.78;5023538;28;20065;-60
2021/10/16 06:38:53;;;;;;;6.25;3.40;;;;;;;10.23;100.00;99083.34;5022596;28;20488;-61
2021/10/16 06:41:18;;;;;;;3.75;3.00;;;;;;;10.30;100.00;99084.16;5028650;28;20067;-60
2021/10/16 06:43:44;;;;;;;3.08;2.80;;;;;;;10.33;100.00;99089.25;5030445;28;20514;-59
2021/10/16 06:46:09;;;;;;;4.95;3.15;;;;;;;10.41;100.00;99093.41;5029496;28;20397;-56
2021/10/16 06:48:35;;;;;;;4.07;3.67;;;;;;;10.57;100.00;99093.22;5028308;28;20052;-58
2021/10/16 06:51:00;;;;;;;8.57;4.25;;;;;;;10.74;100.00;99102.44;5030193;28;20400;-61
2021/10/16 06:53:25;;;;;;;4.75;3.45;;;;;;;11.05;100.00;99102.91;5027339;28;20033;-59
2021/10/16 06:55:51;;;;;;;5.22;3.78;;;;;;;11.19;100.00;99095.03;5029477;28;20128;-60
2021/10/16 06:58:16;;;;;;;5.47;3.72;;;;;;;11.46;100.00;99112.56;5026477;28;20460;-58
2021/10/16 07:00:42;;;;;;;2.88;2.67;;;;;;;11.73;100.00;99113.91;5030356;28;20036;-60
2021/10/16 07:03:08;;;;;;;3.03;2.83;;;;;;;11.72;100.00;99101.94;5022899;28;20058;-57
2021/10/16 07:05:33;;;;;;;2.63;2.35;;;;;;;11.82;100.00;99104.34;5021911;28;20551;-58
2021/10/16 07:07:59;;;;;;;2.70;2.50;;;;;;;11.83;100.00;99111.19;5019566;28;20026;-60
2021/10/16 07:10:24;;;;;;;2.33;2.13;;;;;;;11.87;100.00;99112.84;5022067;28;20038;-60
2021/10/16 07:12:50;;;;;;;2.60;2.40;;;;;;;11.89;100.00;99105.94;5022609;28;20430;-59
2021/10/16 07:15:15;;;;;;;2.80;2.60;;;;;;;11.76;100.00;99111.28;5024020;28;20034;-59
2021/10/16 07:17:41;;;;;;;2.75;2.13;;;;;;;11.61;100.00;99112.34;5024198;28;20038;-58
2021/10/16 07:20:06;;;;;;;2.83;2.63;;;;;;;11.44;100.00;99109.19;5027645;28;20225;-58
2021/10/16 07:22:32;;;;;;;3.28;2.55;;;;;;;11.39;100.00;99103.28;5028970;28;20033;-60
2021/10/16 07:24:58;;;;;;;2.47;2.00;;;;;;;11.40;100.00;99105.84;5030110;28;20048;-59
2021/10/16 07:27:23;;;;;;;3.45;2.13;;;;;;;11.49;100.00;99119.41;5027761;28;20059;-60
2021/10/16 07:29:48;;;;;;;2.85;2.58;;;;;;;11.51;100.00;99118.50;5032204;28;20026;-63
2021/10/16 07:32:15;;;;;;;2.42;2.22;;;;;;;11.58;100.00;99121.84;5030253;28;20033;-60
2021/10/16 07:34:41;;;;;;;3.53;2.88;;;;;;;11.55;100.00;99120.13;5028369;28;20515;-58
2021/10/16 07:37:06;;;;;;;7.05;2.40;;;;;;;11.73;100.00;99116.47;5025583;28;20033;-60
2021/10/16 07:39:32;;;;;;;3.35;2.15;;;;;;;11.65;97.88;99128.56;5025844;28;20082;-60
2021/10/16 07:41:57;;;;;;;2.75;2.45;;;;;;;11.90;96.35;99127.34;5024526;28;20045;-60
2021/10/16 07:44:22;;;;;;;6.28;3.10;;;;;;;11.92;96.10;99127.31;5023105;28;20060;-59
2021/10/16 07:46:48;;;;;;;4.43;2.50;;;;;;;12.12;92.84;99133.81;5020214;28;20028;-60
2021/10/16 07:49:13;;;;;;;6.63;2.58;;;;;;;12.18;90.90;99132.84;5017532;28;20415;-59
2021/10/16 07:51:39;;;;;;;2.60;1.55;;;;;;;12.44;89.71;99133.22;5027273;28;20527;-60
2021/10/16 07:54:04;;;;;;;2.78;1.67;;;;;;;12.62;86.81;99127.75;5021655;28;20041;-61
2021/10/16 07:56:30;;;;;;;2.00;1.80;;;;;;;12.34;86.62;99134.28;5020777;28;20033;-59
2021/10/16 07:58:55;;;;;;;2.13;1.88;;;;;;;12.64;86.84;99133.72;5025101;28;20032;-62
2021/10/16 08:01:21;;;;;;;4.07;2.20;;;;;;;12.86;83.52;99138.44;5023217;28;20041;-59
2021/10/16 08:03:46;;;;;;;3.78;2.33;;;;;;;12.94;82.55;99146.88;5024656;28;20030;-62
2021/10/16 08:06:12;;;;;;;4.13;2.40;;;;;;;12.85;82.98;99147.91;5023269;28;20021;-61
2021/10/16 08:08:37;;;;;;;4.40;2.10;;;;;;;12.88;80.31;99149.53;5025551;28;20083;-61
2021/10/16 08:11:03;;;;;;;3.20;1.90;;;;;;;12.88;78.92;99146.97;5024646;28;20038;-61
2021/10/16 08:13:30;;;;;;;2.60;1.80;;;;;;;13.10;76.14;99159.41;5021774;28;20418;-56
2021/10/16 08:15:56;;;;;;;3.88;1.90;;;;;;;13.02;76.78;99150.97;5024760;28;20038;-59
2021/10/16 08:18:21;;;;;;;4.70;1.92;;;;;;;13.07;75.16;99156.03;5024211;28;20048;-60
2021/10/16 08:20:47;;;;;;;6.38;3.38;;;;;;;13.15;75.40;99157.56;5016474;28;20053;-60
2021/10/16 08:23:12;;;;;;;2.95;2.03;;;;;;;13.28;73.97;99156.44;5018617;28;20088;-60
2021/10/16 08:25:38;;;;;;;2.60;1.80;;;;;;;13.12;72.58;99161.94;5020761;28;20030;-59
2021/10/16 08:28:08;;;;;;;3.08;1.70;;;;;;;13.28;74.10;99174.47;5023666;28;20079;-61
2021/10/16 08:30:34;;;;;;;2.67;1.70;;;;;;;13.20;74.25;99168.63;5025257;28;20101;-63
2021/10/16 08:32:59;;;;;;;1.65;1.55;;;;;;;13.01;72.57;99163.88;5023909;28;20119;-60
2021/10/16 08:35:25;;;;;;;1.85;1.75;;;;;;;12.89;74.70;99164.13;5026461;28;20455;-60
2021/10/16 08:37:50;;;;;;;2.03;1.80;;;;;;;13.12;73.56;99164.53;5028592;28;20100;-60
2021/10/16 08:40:16;;;;;;;1.85;1.70;;;;;;;13.06;74.80;99151.75;5031783;28;20033;-60
2021/10/16 08:42:41;;;;;;;2.97;1.77;;;;;;;13.14;74.88;99153.34;5024110;28;20068;-63
2021/10/16 08:45:07;;;;;;;2.35;1.63;;;;;;;13.14;73.69;99150.75;5026998;28;20506;-62
2021/10/16 08:47:35;;;;;;;4.97;1.88;;;;;;;13.45;72.39;99155.25;5026365;28;20033;-62
2021/10/16 08:50:03;;;;;;;2.50;2.10;;;;;;;13.43;74.05;99149.28;5025651;28;20068;-63
2021/10/16 08:52:28;;;;;;;2.40;1.60;;;;;;;13.21;74.73;99139.44;5023257;28;20541;-62
2021/10/16 08:54:57;;;;;;;1.88;1.63;;;;;;;13.09;76.94;99149.13;5027314;28;20029;-59
2021/10/16 08:57:22;;;;;;;2.13;1.80;;;;;;;13.10;76.30;99148.25;5026664;28;20105;-64
2021/10/16 08:59:47;;;;;;;3.22;1.73;;;;;;;13.22;75.91;99148.88;5026747;28;20037;-58
2021/10/16 09:02:13;;;;;;;4.03;2.42;;;;;;;13.08;74.28;99145.69;5020435;28;20033;-61
2021/10/16 09:04:38;;;;;;;9.13;3.55;;;;;;;13.12;67.83;99143.94;5025739;28;20062;-59
2021/10/16 09:07:24;;;;;;;2.58;1.70;;;;;;;13.25;67.78;99143.63;5030584;28;20026;-58
2021/10/16 09:09:51;;;;;;;1.95;1.80;;;;;;;13.45;67.35;99140.63;5028298;28;20083;-58
2021/10/16 09:12:17;;;;;;;2.55;1.85;;;;;;;13.51;66.75;99143.06;5026913;28;20041;-59
2021/10/16 09:14:48;;;;;;;1.55;1.45;;;;;;;13.06;71.14;99144.88;5031784;28;20132;-58
2021/10/16 09:17:15;;;;;;;2.13;1.42;;;;;;;13.15;69.22;99146.47;5025821;28;20025;-58
2021/10/16 09:19:42;;;;;;;3.67;1.70;;;;;;;13.28;67.60;99153.03;5029152;28;20029;-59
2021/10/16 09:22:13;;;;;;;1.60;1.50;;;;;;;13.38;67.43;99145.94;5028792;28;20036;-59
2021/10/16 09:24:44;;;;;;;2.03;1.60;;;;;;;13.44;67.51;99156.97;5033739;28;20127;-60
2021/10/16 09:27:12;;;;;;;1.90;1.55;;;;;;;13.60;67.05;99155.75;5026531;28;20072;-60
2021/10/16 09:29:43;;;;;;;1.70;1.60;;;;;;;13.48;66.12;99147.44;5024150;28;20036;-60
2021/10/16 09:32:15;;;;;;;1.83;1.73;;;;;;;13.49;67.81;99150.00;5027132;28;20049;-59
2021/10/16 09:34:43;;;;;;;2.85;1.52;;;;;;;13.59;66.89;99154.03;5033816;28;20020;-60
2021/10/16 09:37:10;;;;;;;1.60;1.50;;;;;;;13.66;66.83;99153.00;5028222;28;20041;-60
2021/10/16 09:39:56;;;;;;;3.47;1.85;;;;;;;13.81;66.54;99153.53;5025988;28;20037;-60
2021/10/16 09:42:33;;;;;;;1.88;1.60;;;;;;;13.97;63.73;99147.13;5023773;28;20151;-60
2021/10/16 09:45:00;;;;;;;3.78;2.10;;;;;;;13.99;63.57;99158.28;5025835;28;20049;-60
2021/10/16 09:47:26;;;;;;;1.90;1.80;;;;;;;13.84;62.84;99148.31;5017323;28;20120;-60
2021/10/16 09:49:58;;;;;;;1.75;1.58;;;;;;;14.09;59.83;99155.41;5019331;28;20038;-60
2021/10/16 09:52:33;;;;;;;2.38;2.03;;;;;;;13.96;57.84;99151.44;5027040;28;20045;-59
2021/10/16 09:54:59;;;;;;;1.83;1.67;;;;;;;14.09;58.69;99147.69;5025492;28;20599;-59
2021/10/16 09:57:25;;;;;;;2.13;1.27;;;;;;;14.19;58.78;99149.16;5027464;28;20046;-60
2021/10/16 09:59:51;;;;;;;4.10;1.92;;;;;;;14.04;58.41;99153.84;5033989;28;20052;-57
2021/10/16 10:02:17;;;;;;;2.65;1.58;;;;;;;14.19;57.65;99146.56;5033197;28;20030;-58
2021/10/16 10:04:45;;;;;;;1.73;1.55;;;;;;;14.08;56.50;99140.84;5027388;28;20026;-58
2021/10/16 10:07:12;;;;;;;1.52;1.42;;;;;;;14.18;57.52;99139.72;5024304;28;20387;-58
2021/10/16 10:09:42;;;;;;;3.97;1.98;;;;;;;14.28;54.36;99142.91;5027000;28;20064;-60
2021/10/16 10:12:11;;;;;;;1.80;1.70;;;;;;;14.16;52.61;99141.50;5024822;28;20137;-60
2021/10/16 10:14:42;;;;;;;1.60;1.50;;;;;;;14.27;53.38;99136.06;5027286;28;20029;-60
2021/10/16 10:17:10;;;;;;;1.60;1.50;;;;;;;14.32;53.11;99133.38;5024737;28;20043;-59
2021/10/16 10:19:39;;;;;;;2.00;1.75;;;;;;;14.15;54.13;99131.22;5024844;28;20033;-59
2021/10/16 10:22:11;;;;;;;2.42;1.80;;;;;;;14.31;56.67;99124.78;5023743;28;20060;-60
2021/10/16 10:24:40;;;;;;;3.03;2.40;;;;;;;14.47;54.46;99130.44;5027097;28;20491;-57
2021/10/16 10:27:08;;;;;;;1.80;1.70;;;;;;;14.53;51.70;99131.09;5029273;28;20033;-59
2021/10/16 10:29:36;;;;;;;2.90;2.60;;;;;;;14.61;50.12;99129.16;5024583;28;20037;-58
2021/10/16 10:32:14;;;;;;;1.85;1.50;;;;;;;14.39;47.51;99125.44;5027762;28;20026;-57
2021/10/16 10:34:42;;;;;;;2.35;2.10;;;;;;;14.44;45.90;99117.59;5027768;28;20785;-59
2021/10/16 10:37:13;;;;;;;2.67;1.65;;;;;;;14.66;46.22;99115.28;5027397;28;20023;-59
2021/10/16 10:39:42;;;;;;;2.33;1.40;;;;;;;14.55;47.56;99118.16;5026451;28;20112;-58
2021/10/16 10:42:13;;;;;;;2.35;1.50;;;;;;;14.53;48.25;99120.78;5025959;28;20033;-59
2021/10/16 10:44:47;;;;;;;1.60;1.55;;;;;;;14.64;48.91;99121.31;5021896;28;20130;-56
2021/10/16 10:47:28;;;;;;;1.48;1.48;;;;;;;14.78;47.50;99118.34;5026291;28;20034;-57
2021/10/16 10:49:59;;;;;;;2.53;2.35;;;;;;;14.71;46.28;99118.59;5029681;28;20029;-58
2021/10/16 10:52:27;;;;;;;1.55;1.17;;;;;;;14.52;47.64;99121.66;5024524;28;20029;-57
2021/10/16 10:54:59;;;;;;;2.25;1.67;;;;;;;14.52;49.14;99120.81;5022865;28;20633;-59
2021/10/16 10:57:43;;;;;;;1.45;1.45;;;;;;;14.69;49.46;99121.19;5027643;28;20094;-57
2021/10/16 11:00:14;;;;;;;2.28;1.63;;;;;;;14.63;49.03;99119.66;5022852;28;20030;-59
2021/10/16 11:02:41;;;;;;;1.60;1.50;;;;;;;14.82;48.70;99113.94;5019877;28;20029;-58
2021/10/16 11:05:33;;;;;;;3.45;1.90;;;;;;;14.78;49.11;99122.69;5023688;28;20044;-59
2021/10/16 11:08:12;;;;;;;1.83;1.73;;;;;;;14.79;46.42;99109.72;5029155;28;20487;-60
2021/10/16 11:10:38;;;;;;;3.10;1.55;;;;;;;14.78;46.53;99110.63;5024734;28;20033;-59
2021/10/16 11:13:17;;;;;;;2.10;2.00;;;;;;;14.70;44.09;99109.13;5021059;28;20033;-58
2021/10/16 11:15:45;;;;;;;3.28;1.60;;;;;;;14.80;43.31;99110.59;5025008;28;20091;-59
2021/10/16 11:18:15;;;;;;;2.90;1.80;;;;;;;14.79;43.50;99112.31;5026227;28;20105;-59
2021/10/16 11:20:41;;;;;;;1.95;1.80;;;;;;;14.48;45.77;99106.28;5025945;28;20425;-58
2021/10/16 11:23:17;;;;;;;2.45;2.13;;;;;;;14.75;49.84;99110.72;5025787;28;20030;-57
2021/10/16 11:25:58;;;;;;;1.65;1.50;;;;;;;14.84;46.44;99107.03;5031347;28;20093;-59
2021/10/16 11:28:24;;;;;;;1.70;1.40;;;;;;;14.97;44.70;99104.06;5026783;28;20033;-59